PWSweather.com
Personal Weather Stations
Station Observations
REBOX73
Petalia At Mount Pantokrator, CorfuGR 49081

Petalia At Mount PantokratorCorfuGR 49081

Lat: 39.747915, Lon: 19.841466

Elevation: 2132

Station Type: ws1080

http://pantokratoras-kerkyra.meteoclub.gr/

Latest ConditionsUpdated 8:45:01 PM GMT+01:01 Sunday, Nov 19, 2017
Currently Today's Max Today's Min Today's Average
Temperature 48.4°F9.1°C 52.5°F11.4°C 47.8°F8.8°C 49.8°F9.9°C
Dew Point 46.7°F8.2°C 50.2°F10.1°C 45.3°F7.4°C 47.9°F8.8°C
Winds 2.0 mph W3.2 kmh W 5.0 mph W8.0 kmh W - 1.9 mph 3.1 kmh
Wind Gusts 8.0 mph12.9 kmh 13.0 mph20.9 kmh - -
Humidity 94% 100% 86% 93%
Pressure 29.94 in1013.9 mb 29.94 in1013.9 mb 29.88 in1011.9 mb -
Hour Temp Dew Point Humidity Winds Wind Gusts Pressure Precip Precip Rate Daily Precip Total
08:45 PM 48.4°F9.1°C 46.7°F8.2°C 94% 2.0 mph W3.2 kmh W 8.0 mph12.9 kmh 29.94 in1013.9 mb 0.00 in0.0 mm 0.00 in0.0 mm 0.00 in0.0 mm
08:30 PM 48.4°F9.1°C 46.7°F8.2°C 94% 3.0 mph WNW4.8 kmh WNW 7.0 mph11.3 kmh 29.93 in1013.5 mb 0.00 in0.0 mm 0.00 in0.0 mm 0.00 in0.0 mm
08:15 PM 48.4°F9.1°C 46.7°F8.2°C 94% 1.0 mph NW1.6 kmh NW 4.0 mph6.4 kmh 29.93 in1013.5 mb 0.00 in0.0 mm 0.00 in0.0 mm 0.00 in0.0 mm
08:00 PM 48.4°F9.1°C 46.7°F8.2°C 94% 1.0 mph NW1.6 kmh NW 4.0 mph6.4 kmh 29.93 in1013.5 mb 0.00 in0.0 mm 0.00 in0.0 mm 0.00 in0.0 mm
07:45 PM 48.4°F9.1°C 46.7°F8.2°C 94% 2.0 mph W3.2 kmh W 7.0 mph11.3 kmh 29.93 in1013.5 mb 0.00 in0.0 mm 0.00 in0.0 mm 0.00 in0.0 mm
07:30 PM 48.4°F9.1°C 46.7°F8.2°C 94% 2.0 mph WNW3.2 kmh WNW 10.0 mph16.1 kmh 29.92 in1013.2 mb 0.00 in0.0 mm 0.00 in0.0 mm 0.00 in0.0 mm
07:15 PM 48.2°F9.0°C 46.3°F7.9°C 93% 1.0 mph WNW1.6 kmh WNW 7.0 mph11.3 kmh 29.92 in1013.2 mb 0.00 in0.0 mm 0.00 in0.0 mm 0.00 in0.0 mm
07:00 PM 48.4°F9.1°C 46.4°F8.0°C 93% 2.0 mph NW3.2 kmh NW 6.0 mph9.7 kmh 29.92 in1013.2 mb 0.00 in0.0 mm 0.00 in0.0 mm 0.00 in0.0 mm
06:45 PM 48.2°F9.0°C 46.3°F7.9°C 93% 2.0 mph W3.2 kmh W 5.0 mph8.0 kmh 29.92 in1013.2 mb 0.00 in0.0 mm 0.00 in0.0 mm 0.00 in0.0 mm
06:30 PM 48.0°F8.9°C 45.5°F7.5°C 91% 3.0 mph W4.8 kmh W 7.0 mph11.3 kmh 29.92 in1013.2 mb 0.00 in0.0 mm 0.00 in0.0 mm 0.00 in0.0 mm
06:15 PM 47.8°F8.8°C 45.6°F7.6°C 92% 1.0 mph WSW1.6 kmh WSW 6.0 mph9.7 kmh 29.91 in1012.9 mb 0.00 in0.0 mm 0.00 in0.0 mm 0.00 in0.0 mm
06:00 PM 47.8°F8.8°C 45.6°F7.6°C 92% 1.0 mph WSW1.6 kmh WSW 5.0 mph8.0 kmh 29.91 in1012.9 mb 0.00 in0.0 mm 0.00 in0.0 mm 0.00 in0.0 mm
05:45 PM 47.8°F8.8°C 45.6°F7.6°C 92% 2.0 mph W3.2 kmh W 7.0 mph11.3 kmh 29.91 in1012.9 mb 0.00 in0.0 mm 0.00 in0.0 mm 0.00 in0.0 mm
05:30 PM 48.0°F8.9°C 46.1°F7.8°C 93% 3.0 mph WSW4.8 kmh WSW 6.0 mph9.7 kmh 29.91 in1012.9 mb 0.00 in0.0 mm 0.00 in0.0 mm 0.00 in0.0 mm
05:15 PM 47.8°F8.8°C 45.6°F7.6°C 92% 2.0 mph WSW3.2 kmh WSW 6.0 mph9.7 kmh 29.91 in1012.9 mb 0.00 in0.0 mm 0.00 in0.0 mm 0.00 in0.0 mm
05:00 PM 47.8°F8.8°C 45.3°F7.4°C 91% 3.0 mph WSW4.8 kmh WSW 11.0 mph17.7 kmh 29.91 in1012.9 mb 0.00 in0.0 mm 0.00 in0.0 mm 0.00 in0.0 mm
04:45 PM 48.0°F8.9°C 45.5°F7.5°C 91% 5.0 mph WSW8.0 kmh WSW 12.0 mph19.3 kmh 29.91 in1012.9 mb 0.00 in0.0 mm 0.00 in0.0 mm 0.00 in0.0 mm
04:30 PM 48.4°F9.1°C 45.9°F7.7°C 91% 5.0 mph W8.0 kmh W 13.0 mph20.9 kmh 29.91 in1012.9 mb 0.00 in0.0 mm 0.00 in0.0 mm 0.00 in0.0 mm
04:15 PM 48.6°F9.2°C 46.1°F7.8°C 91% 4.0 mph WSW6.4 kmh WSW 10.0 mph16.1 kmh 29.91 in1012.9 mb 0.00 in0.0 mm 0.00 in0.0 mm 0.00 in0.0 mm
04:00 PM 49.3°F9.6°C 46.8°F8.2°C 91% 4.0 mph W6.4 kmh W 10.0 mph16.1 kmh 29.91 in1012.9 mb 0.00 in0.0 mm 0.00 in0.0 mm 0.00 in0.0 mm
03:45 PM 49.8°F9.9°C 47.6°F8.7°C 92% 4.0 mph WSW6.4 kmh WSW 11.0 mph17.7 kmh 29.91 in1012.9 mb 0.00 in0.0 mm 0.00 in0.0 mm 0.00 in0.0 mm
03:30 PM 49.6°F9.8°C 46.8°F8.2°C 90% 3.0 mph W4.8 kmh W 9.0 mph14.5 kmh 29.91 in1012.9 mb 0.00 in0.0 mm 0.00 in0.0 mm 0.00 in0.0 mm
03:15 PM 50.5°F10.3°C 47.7°F8.7°C 90% 4.0 mph W6.4 kmh W 9.0 mph14.5 kmh 29.91 in1012.9 mb 0.00 in0.0 mm 0.00 in0.0 mm 0.00 in0.0 mm
03:00 PM 51.1°F10.6°C 48.0°F8.9°C 89% 4.0 mph WNW6.4 kmh WNW 13.0 mph20.9 kmh 29.91 in1012.9 mb 0.00 in0.0 mm 0.00 in0.0 mm 0.00 in0.0 mm
02:45 PM 51.4°F10.8°C 48.0°F8.9°C 88% 3.0 mph W4.8 kmh W 13.0 mph20.9 kmh 29.91 in1012.9 mb 0.00 in0.0 mm 0.00 in0.0 mm 0.00 in0.0 mm
02:30 PM 52.0°F11.1°C 47.9°F8.8°C 86% 3.0 mph WNW4.8 kmh WNW 11.0 mph17.7 kmh 29.91 in1012.9 mb 0.00 in0.0 mm 0.00 in0.0 mm 0.00 in0.0 mm
02:15 PM 51.1°F10.6°C 47.6°F8.7°C 88% 4.0 mph WNW6.4 kmh WNW 13.0 mph20.9 kmh 29.91 in1012.9 mb 0.00 in0.0 mm 0.00 in0.0 mm 0.00 in0.0 mm
02:00 PM 51.6°F10.9°C 47.9°F8.8°C 87% 3.0 mph WSW4.8 kmh WSW 10.0 mph16.1 kmh 29.91 in1012.9 mb 0.00 in0.0 mm 0.00 in0.0 mm 0.00 in0.0 mm
01:45 PM 52.0°F11.1°C 48.8°F9.3°C 89% 4.0 mph WSW6.4 kmh WSW 13.0 mph20.9 kmh 29.91 in1012.9 mb 0.00 in0.0 mm 0.00 in0.0 mm 0.00 in0.0 mm
01:30 PM 52.5°F11.4°C 48.8°F9.3°C 87% 4.0 mph W6.4 kmh W 9.0 mph14.5 kmh 29.91 in1012.9 mb 0.00 in0.0 mm 0.00 in0.0 mm 0.00 in0.0 mm
01:15 PM 51.4°F10.8°C 48.9°F9.4°C 91% 5.0 mph W8.0 kmh W 12.0 mph19.3 kmh 29.91 in1012.9 mb 0.00 in0.0 mm 0.00 in0.0 mm 0.00 in0.0 mm
01:00 PM 51.3°F10.7°C 49.3°F9.6°C 93% 3.0 mph WSW4.8 kmh WSW 8.0 mph12.9 kmh 29.91 in1012.9 mb 0.00 in0.0 mm 0.00 in0.0 mm 0.00 in0.0 mm
12:45 PM 50.7°F10.4°C 48.5°F9.2°C 92% 2.0 mph WSW3.2 kmh WSW 8.0 mph12.9 kmh 29.91 in1012.9 mb 0.00 in0.0 mm 0.00 in0.0 mm 0.00 in0.0 mm
12:30 PM 50.4°F10.2°C 48.7°F9.3°C 94% 3.0 mph W4.8 kmh W 10.0 mph16.1 kmh 29.91 in1012.9 mb 0.00 in0.0 mm 0.00 in0.0 mm 0.00 in0.0 mm
12:15 PM 50.2°F10.1°C 48.8°F9.3°C 95% 2.0 mph W3.2 kmh W 10.0 mph16.1 kmh 29.92 in1013.2 mb 0.00 in0.0 mm 0.00 in0.0 mm 0.00 in0.0 mm
12:00 PM 50.4°F10.2°C 49.0°F9.4°C 95% 4.0 mph SW6.4 kmh SW 12.0 mph19.3 kmh 29.92 in1013.2 mb 0.00 in0.0 mm 0.00 in0.0 mm 0.00 in0.0 mm
11:45 AM 50.5°F10.3°C 49.2°F9.6°C 95% 3.0 mph WNW4.8 kmh WNW 11.0 mph17.7 kmh 29.92 in1013.2 mb 0.00 in0.0 mm 0.00 in0.0 mm 0.00 in0.0 mm
11:30 AM 50.5°F10.3°C 48.9°F9.4°C 94% 2.0 mph WSW3.2 kmh WSW 8.0 mph12.9 kmh 29.92 in1013.2 mb 0.00 in0.0 mm 0.00 in0.0 mm 0.00 in0.0 mm
11:15 AM 50.7°F10.4°C 49.1°F9.5°C 94% 1.0 mph WNW1.6 kmh WNW 6.0 mph9.7 kmh 29.93 in1013.5 mb 0.00 in0.0 mm 0.00 in0.0 mm 0.00 in0.0 mm
11:00 AM 50.7°F10.4°C 49.1°F9.5°C 94% 1.0 mph W1.6 kmh W 7.0 mph11.3 kmh 29.93 in1013.5 mb 0.00 in0.0 mm 0.00 in0.0 mm 0.00 in0.0 mm
10:45 AM 50.7°F10.4°C 49.1°F9.5°C 94% 1.0 mph N1.6 kmh N 4.0 mph6.4 kmh 29.93 in1013.5 mb 0.00 in0.0 mm 0.00 in0.0 mm 0.00 in0.0 mm
10:30 AM 50.4°F10.2°C 49.0°F9.4°C 95% 1.0 mph WSW1.6 kmh WSW 4.0 mph6.4 kmh 29.93 in1013.5 mb 0.00 in0.0 mm 0.00 in0.0 mm 0.00 in0.0 mm
10:15 AM 50.0°F10.0°C 48.9°F9.4°C 96% 2.0 mph WSW3.2 kmh WSW 7.0 mph11.3 kmh 29.93 in1013.5 mb 0.00 in0.0 mm 0.00 in0.0 mm 0.00 in0.0 mm
10:00 AM 50.0°F10.0°C 49.2°F9.6°C 97% 2.0 mph WSW3.2 kmh WSW 10.0 mph16.1 kmh 29.93 in1013.5 mb 0.00 in0.0 mm 0.00 in0.0 mm 0.00 in0.0 mm
09:45 AM 50.0°F10.0°C 49.2°F9.6°C 97% 3.0 mph WSW4.8 kmh WSW 7.0 mph11.3 kmh 29.94 in1013.9 mb 0.00 in0.0 mm 0.00 in0.0 mm 0.00 in0.0 mm
09:30 AM 50.2°F10.1°C 50.2°F10.1°C 100% 1.0 mph W1.6 kmh W 5.0 mph8.0 kmh 29.94 in1013.9 mb 0.00 in0.0 mm 0.00 in0.0 mm 0.00 in0.0 mm
09:15 AM 50.2°F10.1°C 50.2°F10.1°C 100% 2.0 mph W3.2 kmh W 5.0 mph8.0 kmh 29.94 in1013.9 mb 0.00 in0.0 mm 0.00 in0.0 mm 0.00 in0.0 mm
09:00 AM 49.8°F9.9°C 49.8°F9.9°C 100% 2.0 mph WSW3.2 kmh WSW 8.0 mph12.9 kmh 29.94 in1013.9 mb 0.00 in0.0 mm 0.00 in0.0 mm 0.00 in0.0 mm
08:45 AM 50.0°F10.0°C 49.2°F9.6°C 97% 3.0 mph WSW4.8 kmh WSW 11.0 mph17.7 kmh 29.93 in1013.5 mb 0.00 in0.0 mm 0.00 in0.0 mm 0.00 in0.0 mm
08:30 AM 50.2°F10.1°C 49.4°F9.7°C 97% 2.0 mph W3.2 kmh W 10.0 mph16.1 kmh 29.93 in1013.5 mb 0.00 in0.0 mm 0.00 in0.0 mm 0.00 in0.0 mm
08:15 AM 50.4°F10.2°C 49.5°F9.7°C 97% 2.0 mph WSW3.2 kmh WSW 10.0 mph16.1 kmh 29.92 in1013.2 mb 0.00 in0.0 mm 0.00 in0.0 mm 0.00 in0.0 mm
08:00 AM 50.4°F10.2°C 49.5°F9.7°C 97% 2.0 mph SW3.2 kmh SW 12.0 mph19.3 kmh 29.92 in1013.2 mb 0.00 in0.0 mm 0.00 in0.0 mm 0.00 in0.0 mm
07:45 AM 50.4°F10.2°C 49.5°F9.7°C 97% 2.0 mph SSW3.2 kmh SSW 8.0 mph12.9 kmh 29.92 in1013.2 mb 0.00 in0.0 mm 0.00 in0.0 mm 0.00 in0.0 mm
07:30 AM 50.5°F10.3°C 49.4°F9.7°C 96% 2.0 mph WSW3.2 kmh WSW 6.0 mph9.7 kmh 29.92 in1013.2 mb 0.00 in0.0 mm 0.00 in0.0 mm 0.00 in0.0 mm
07:15 AM 50.4°F10.2°C 49.3°F9.6°C 96% 2.0 mph E3.2 kmh E 6.0 mph9.7 kmh 29.91 in1012.9 mb 0.00 in0.0 mm 0.00 in0.0 mm 0.00 in0.0 mm
07:00 AM 49.8°F9.9°C 48.4°F9.1°C 95% Calm Calm 1.0 mph1.6 kmh 29.91 in1012.9 mb 0.00 in0.0 mm 0.00 in0.0 mm 0.00 in0.0 mm
06:45 AM 49.8°F9.9°C 48.2°F9.0°C 94% Calm Calm 1.0 mph1.6 kmh 29.91 in1012.9 mb 0.00 in0.0 mm 0.00 in0.0 mm 0.00 in0.0 mm
06:30 AM 49.8°F9.9°C 48.2°F9.0°C 94% Calm Calm 1.0 mph1.6 kmh 29.90 in1012.5 mb 0.00 in0.0 mm 0.00 in0.0 mm 0.00 in0.0 mm
06:15 AM 49.8°F9.9°C 47.9°F8.8°C 93% Calm Calm 2.0 mph3.2 kmh 29.89 in1012.2 mb 0.00 in0.0 mm 0.00 in0.0 mm 0.00 in0.0 mm
06:00 AM 50.0°F10.0°C 48.1°F8.9°C 93% 1.0 mph ENE1.6 kmh ENE 3.0 mph4.8 kmh 29.89 in1012.2 mb 0.00 in0.0 mm 0.00 in0.0 mm 0.00 in0.0 mm
05:45 AM 49.8°F9.9°C 48.2°F9.0°C 94% Calm Calm 1.0 mph1.6 kmh 29.89 in1012.2 mb 0.00 in0.0 mm 0.00 in0.0 mm 0.00 in0.0 mm
05:30 AM 49.8°F9.9°C 48.2°F9.0°C 94% Calm Calm 4.0 mph6.4 kmh 29.88 in1011.9 mb 0.00 in0.0 mm 0.00 in0.0 mm 0.00 in0.0 mm
05:00 AM 49.8°F9.9°C 48.4°F9.1°C 95% Calm Calm 1.0 mph1.6 kmh 29.88 in1011.9 mb 0.00 in0.0 mm 0.00 in0.0 mm 0.00 in0.0 mm
04:45 AM 50.2°F10.1°C 48.5°F9.2°C 94% Calm Calm 1.0 mph1.6 kmh 29.88 in1011.9 mb 0.00 in0.0 mm 0.00 in0.0 mm 0.00 in0.0 mm
04:15 AM 50.5°F10.3°C 48.6°F9.2°C 93% 1.0 mph NE1.6 kmh NE 8.0 mph12.9 kmh 29.89 in1012.2 mb 0.00 in0.0 mm 0.00 in0.0 mm 0.00 in0.0 mm
04:00 AM 49.8°F9.9°C 47.6°F8.7°C 92% 1.0 mph NNE1.6 kmh NNE 7.0 mph11.3 kmh 29.89 in1012.2 mb 0.00 in0.0 mm 0.00 in0.0 mm 0.00 in0.0 mm
03:45 AM 50.2°F10.1°C 47.4°F8.6°C 90% 1.0 mph NW1.6 kmh NW 5.0 mph8.0 kmh 29.89 in1012.2 mb 0.00 in0.0 mm 0.00 in0.0 mm 0.00 in0.0 mm
03:30 AM 50.2°F10.1°C 47.7°F8.7°C 91% 1.0 mph NE1.6 kmh NE 6.0 mph9.7 kmh 29.89 in1012.2 mb 0.00 in0.0 mm 0.00 in0.0 mm 0.00 in0.0 mm
03:15 AM 49.8°F9.9°C 47.9°F8.8°C 93% 1.0 mph NNE1.6 kmh NNE 4.0 mph6.4 kmh 29.89 in1012.2 mb 0.00 in0.0 mm 0.00 in0.0 mm 0.00 in0.0 mm
03:00 AM 50.0°F10.0°C 48.1°F8.9°C 93% 1.0 mph SE1.6 kmh SE 2.0 mph3.2 kmh 29.89 in1012.2 mb 0.00 in0.0 mm 0.00 in0.0 mm 0.00 in0.0 mm
02:45 AM 50.0°F10.0°C 47.8°F8.8°C 92% 1.0 mph NE1.6 kmh NE 4.0 mph6.4 kmh 29.89 in1012.2 mb 0.00 in0.0 mm 0.00 in0.0 mm 0.00 in0.0 mm
02:30 AM 49.6°F9.8°C 47.4°F8.6°C 92% 1.0 mph ENE1.6 kmh ENE 3.0 mph4.8 kmh 29.89 in1012.2 mb 0.00 in0.0 mm 0.00 in0.0 mm 0.00 in0.0 mm
02:00 AM 49.6°F9.8°C 47.4°F8.6°C 92% 1.0 mph ENE1.6 kmh ENE 3.0 mph4.8 kmh 29.90 in1012.5 mb 0.00 in0.0 mm 0.00 in0.0 mm 0.00 in0.0 mm
01:45 AM 49.5°F9.7°C 47.2°F8.4°C 92% 1.0 mph NE1.6 kmh NE 4.0 mph6.4 kmh 29.90 in1012.5 mb 0.00 in0.0 mm 0.00 in0.0 mm 0.00 in0.0 mm
01:30 AM 49.6°F9.8°C 47.4°F8.6°C 92% 1.0 mph NE1.6 kmh NE 4.0 mph6.4 kmh 29.90 in1012.5 mb 0.00 in0.0 mm 0.00 in0.0 mm 0.00 in0.0 mm
01:15 AM 50.0°F10.0°C 47.5°F8.6°C 91% 1.0 mph ENE1.6 kmh ENE 3.0 mph4.8 kmh 29.90 in1012.5 mb 0.00 in0.0 mm 0.00 in0.0 mm 0.00 in0.0 mm
12:45 AM 50.0°F10.0°C 48.1°F8.9°C 93% 1.0 mph NW1.6 kmh NW 5.0 mph8.0 kmh 29.90 in1012.5 mb 0.00 in0.0 mm 0.00 in0.0 mm 0.00 in0.0 mm
12:30 AM 49.6°F9.8°C 48.3°F9.1°C 95% Calm Calm 4.0 mph6.4 kmh 29.90 in1012.5 mb 0.00 in0.0 mm 0.00 in0.0 mm 0.00 in0.0 mm
12:15 AM 50.4°F10.2°C 49.3°F9.6°C 96% 1.0 mph NNE1.6 kmh NNE 4.0 mph6.4 kmh 29.90 in1012.5 mb 0.00 in0.0 mm 0.00 in0.0 mm 0.00 in0.0 mm
12:00 AM 50.0°F10.0°C 48.9°F9.4°C 96% Calm Calm 1.0 mph1.6 kmh 29.90 in1012.5 mb 0.00 in0.0 mm 0.00 in0.0 mm 0.00 in0.0 mm